Okanagan Landing, Canada
Current Conditions -  °F | °C
As of 2:15 PM on Monday 20 Oct 2014 (Local Time) from CYLW Reporting Station
Light Rain Light Rain  
Wind Chill: 57°   Ceiling: 8000
Heat Index: 57°   Visibility: 9mi
Dew Point: 52°   Wind: 6mph
Humidity: 82%   Direction: 180°S
Pressure: 29.7"   Gusts: NA
Location:  50.23°N, 119.36°W
Report Text: CYLW 202115Z AUTO 18005KT 9SM -RA BKN080 BKN110 14/11 A2970 RMK SLP063 DENSITY ALT 1800FT
Loading
Personal Weather Stations






























Interactive Weather Map
Tropical Storm Tracking
New forecast layout! Learn more

10-Day Weather Forecast

Advertisements
Track Severe Weather on mobile